Time;durP1;ratioP1;P1;durP2;ratioP2;P2;SDS_P1;SDS_P2;PMS_P1;PMS_P2;Temp;Humidity;BMP_temperature;BMP_pressure;BME280_temperature;BME280_humidity;BME280_pressure;Samples;Min_cycle;Max_cycle;Signal;HPM_P1;HPM_P2
2022/02/13 00:00:56;;;;;;;2.92;0.90;;;23.70;31.70;;;;;;5093289;28;20386;-69
2022/02/13 00:03:22;;;;;;;1.80;0.70;;;23.70;31.70;;;;;;5094972;28;20435;-70
2022/02/13 00:05:49;;;;;;;3.57;0.80;;;23.70;31.50;;;;;;5095573;28;20463;-69
2022/02/13 00:08:15;;;;;;;1.30;0.70;;;23.70;31.50;;;;;;5095502;28;20392;-72
2022/02/13 00:10:40;;;;;;;2.00;0.70;;;23.70;31.40;;;;;;5095427;28;20394;-70
2022/02/13 00:13:06;;;;;;;4.03;0.70;;;23.70;31.40;;;;;;5094565;28;20879;-69
2022/02/13 00:15:32;;;;;;;3.20;0.80;;;23.70;31.30;;;;;;5093440;28;20433;-69
2022/02/13 00:17:58;;;;;;;2.97;0.77;;;23.70;31.40;;;;;;5095272;28;20878;-68
2022/02/13 00:20:25;;;;;;;3.38;0.73;;;23.70;31.30;;;;;;5095149;28;20406;-69
2022/02/13 00:22:50;;;;;;;2.90;0.70;;;23.60;31.30;;;;;;5095148;28;20877;-69
2022/02/13 00:25:16;;;;;;;2.13;0.70;;;23.60;31.30;;;;;;5094618;28;20390;-70
2022/02/13 00:27:45;;;;;;;1.30;0.70;;;23.60;31.30;;;;;;5094770;28;20439;-70
2022/02/13 00:30:13;;;;;;;2.20;0.60;;;23.60;31.40;;;;;;5093780;28;20472;-69
2022/02/13 00:32:40;;;;;;;1.27;0.65;;;23.50;31.30;;;;;;5095038;28;20417;-71
2022/02/13 00:35:06;;;;;;;1.73;0.70;;;23.50;31.30;;;;;;5094574;28;20850;-68
2022/02/13 00:37:32;;;;;;;1.30;0.70;;;23.50;31.40;;;;;;5093311;28;20402;-69
2022/02/13 00:39:58;;;;;;;1.50;0.70;;;23.50;31.30;;;;;;5092984;28;20939;-68
2022/02/13 00:42:24;;;;;;;1.20;0.60;;;23.50;31.40;;;;;;5094682;28;20393;-68
2022/02/13 00:44:49;;;;;;;1.27;0.70;;;23.40;31.30;;;;;;5094553;28;20454;-68
2022/02/13 00:47:15;;;;;;;1.60;0.60;;;23.40;31.30;;;;;;5094263;28;20851;-68
2022/02/13 00:49:41;;;;;;;0.80;0.50;;;23.40;31.20;;;;;;5094748;28;20390;-68
2022/02/13 00:52:06;;;;;;;1.45;0.80;;;23.40;31.30;;;;;;5094649;28;20465;-69
2022/02/13 00:54:33;;;;;;;1.20;0.63;;;23.40;31.30;;;;;;5094577;28;20396;-69
2022/02/13 00:56:59;;;;;;;1.30;0.65;;;23.40;31.30;;;;;;5094530;28;20439;-70
2022/02/13 00:59:25;;;;;;;1.98;0.70;;;23.40;31.00;;;;;;5093947;28;20413;-69
2022/02/13 01:01:51;;;;;;;1.35;0.80;;;23.40;31.10;;;;;;5094409;28;20383;-69
2022/02/13 01:04:16;;;;;;;1.30;0.80;;;23.40;31.10;;;;;;5094318;28;20390;-69
2022/02/13 01:06:42;;;;;;;1.27;0.60;;;23.30;31.10;;;;;;5094398;28;20378;-69
2022/02/13 01:09:08;;;;;;;1.87;0.60;;;23.40;31.10;;;;;;5094067;28;20527;-69
2022/02/13 01:11:34;;;;;;;0.93;0.60;;;23.40;31.00;;;;;;5093601;28;20390;-68
2022/02/13 01:14:00;;;;;;;1.70;0.67;;;23.30;31.00;;;;;;5094095;28;20394;-68
2022/02/13 01:16:26;;;;;;;1.20;0.60;;;23.40;30.30;;;;;;5094182;28;20382;-68
2022/02/13 01:18:53;;;;;;;1.75;0.70;;;23.30;30.50;;;;;;5093939;28;20416;-68
2022/02/13 01:21:19;;;;;;;1.55;0.75;;;23.30;30.50;;;;;;5093652;28;20386;-68
2022/02/13 01:23:44;;;;;;;1.80;0.60;;;23.20;30.40;;;;;;5092618;28;20390;-68
2022/02/13 01:26:11;;;;;;;1.60;0.80;;;23.20;30.50;;;;;;5093957;28;20436;-69
2022/02/13 01:28:38;;;;;;;1.70;0.60;;;23.20;30.60;;;;;;5092211;28;20599;-68
2022/02/13 01:31:06;;;;;;;1.90;0.80;;;23.20;30.70;;;;;;5093176;28;20893;-68
2022/02/13 01:33:33;;;;;;;1.20;0.70;;;23.20;30.80;;;;;;5093375;28;20382;-67
2022/02/13 01:35:59;;;;;;;1.80;0.80;;;23.10;30.80;;;;;;5093753;28;20378;-67
2022/02/13 01:38:26;;;;;;;1.10;0.60;;;23.10;30.80;;;;;;5093535;28;20912;-68
2022/02/13 01:40:52;;;;;;;1.63;0.80;;;23.10;30.80;;;;;;5093646;28;20930;-69
2022/02/13 01:43:18;;;;;;;1.10;0.60;;;23.10;30.80;;;;;;5093106;28;20389;-68
2022/02/13 01:45:44;;;;;;;1.83;0.80;;;23.10;30.80;;;;;;5092240;28;20481;-69
2022/02/13 01:48:10;;;;;;;1.95;0.70;;;23.10;30.90;;;;;;5093636;28;20386;-69
2022/02/13 01:50:37;;;;;;;1.75;0.70;;;23.10;30.90;;;;;;5093580;28;20845;-68
2022/02/13 01:53:03;;;;;;;1.50;0.70;;;23.10;30.80;;;;;;5093468;28;20503;-68
2022/02/13 01:55:30;;;;;;;1.80;0.57;;;23.10;30.70;;;;;;5093183;28;20481;-69
2022/02/13 01:57:57;;;;;;;1.00;0.60;;;23.10;30.70;;;;;;5092286;28;20448;-68
2022/02/13 02:00:26;;;;;;;1.63;0.80;;;23.10;30.80;;;;;;5093296;28;20420;-69
2022/02/13 02:02:52;;;;;;;1.27;0.60;;;23.00;30.80;;;;;;5093251;28;20386;-70
2022/02/13 02:05:18;;;;;;;1.00;0.60;;;23.10;30.80;;;;;;5092867;28;20390;-67
2022/02/13 02:07:44;;;;;;;1.23;0.55;;;23.10;30.90;;;;;;5093391;28;20390;-68
2022/02/13 02:10:10;;;;;;;2.15;0.75;;;23.00;30.80;;;;;;5093046;28;20398;-68
2022/02/13 02:12:36;;;;;;;2.50;0.60;;;23.00;30.70;;;;;;5093216;28;20378;-68
2022/02/13 02:15:02;;;;;;;1.40;0.70;;;23.00;30.90;;;;;;5092960;28;20727;-67
2022/02/13 02:17:28;;;;;;;1.00;0.50;;;23.00;30.90;;;;;;5092569;28;20382;-68
2022/02/13 02:19:54;;;;;;;0.90;0.60;;;22.90;30.80;;;;;;5092984;28;20452;-68
2022/02/13 02:22:19;;;;;;;1.80;0.60;;;23.00;30.90;;;;;;5092619;28;20746;-68
2022/02/13 02:24:48;;;;;;;0.80;0.50;;;22.90;30.80;;;;;;5090986;28;20390;-68
2022/02/13 02:27:14;;;;;;;1.08;0.60;;;23.00;30.90;;;;;;5092717;28;20465;-67
2022/02/13 02:29:40;;;;;;;1.23;0.60;;;23.00;31.00;;;;;;5091272;28;20413;-68
2022/02/13 02:32:10;;;;;;;1.10;0.60;;;23.00;31.00;;;;;;5091058;28;20875;-67
2022/02/13 02:34:40;;;;;;;1.15;0.60;;;22.90;30.90;;;;;;5092712;28;20390;-70
2022/02/13 02:37:07;;;;;;;2.10;0.80;;;22.90;31.00;;;;;;5091320;28;20458;-68
2022/02/13 02:39:33;;;;;;;0.80;0.50;;;22.80;30.90;;;;;;5090490;28;20476;-68
2022/02/13 02:41:59;;;;;;;1.30;0.60;;;22.80;31.00;;;;;;5091155;28;20382;-68
2022/02/13 02:44:25;;;;;;;1.05;0.60;;;22.80;30.90;;;;;;5092434;28;20854;-69
2022/02/13 02:46:51;;;;;;;2.20;0.60;;;22.70;31.00;;;;;;5091997;28;20476;-69
2022/02/13 02:49:17;;;;;;;1.30;0.60;;;22.70;30.70;;;;;;5091960;28;20808;-68
2022/02/13 02:51:42;;;;;;;1.27;0.50;;;22.70;30.90;;;;;;5090827;28;20870;-71
2022/02/13 02:54:08;;;;;;;1.10;0.60;;;22.70;30.80;;;;;;5092409;28;20451;-69
2022/02/13 02:56:34;;;;;;;1.10;0.60;;;22.70;30.70;;;;;;5090974;28;20425;-69
2022/02/13 02:58:59;;;;;;;1.00;0.60;;;22.70;30.80;;;;;;5092143;28;20896;-69
2022/02/13 03:01:25;;;;;;;0.88;0.57;;;22.70;30.90;;;;;;5090474;28;20992;-69
2022/02/13 03:03:51;;;;;;;0.80;0.50;;;22.60;30.80;;;;;;5092137;28;20390;-69
2022/02/13 03:06:16;;;;;;;1.30;0.50;;;22.70;30.70;;;;;;5092245;28;20382;-68
2022/02/13 03:08:42;;;;;;;1.00;0.60;;;22.60;30.70;;;;;;5090734;28;20390;-68
2022/02/13 03:11:09;;;;;;;1.50;0.70;;;22.60;30.70;;;;;;5092141;28;20394;-69
2022/02/13 03:13:35;;;;;;;2.33;0.70;;;22.60;30.70;;;;;;5091489;28;20928;-68
2022/02/13 03:16:01;;;;;;;1.48;0.60;;;22.60;30.80;;;;;;5091999;28;20457;-68
2022/02/13 03:18:30;;;;;;;1.27;0.50;;;22.60;30.70;;;;;;5091869;28;20378;-69
2022/02/13 03:20:56;;;;;;;1.88;0.70;;;22.60;30.70;;;;;;5090490;28;20398;-68
2022/02/13 03:23:22;;;;;;;2.10;0.60;;;22.60;30.70;;;;;;5091401;28;20477;-68
2022/02/13 03:25:48;;;;;;;1.20;0.70;;;22.60;30.80;;;;;;5089883;28;20530;-68
2022/02/13 03:28:14;;;;;;;0.80;0.53;;;22.50;30.80;;;;;;5090028;28;20386;-69
2022/02/13 03:30:40;;;;;;;1.02;0.60;;;22.50;30.70;;;;;;5089849;28;20471;-68
2022/02/13 03:33:05;;;;;;;1.00;0.70;;;22.50;30.70;;;;;;5091362;28;20400;-67
2022/02/13 03:35:31;;;;;;;0.80;0.50;;;22.50;30.70;;;;;;5089392;28;20895;-68
2022/02/13 03:37:57;;;;;;;1.10;0.52;;;22.50;30.60;;;;;;5091485;28;20406;-69
2022/02/13 03:40:23;;;;;;;0.93;0.50;;;22.50;30.70;;;;;;5090261;28;20432;-70
2022/02/13 03:42:48;;;;;;;0.60;0.40;;;22.50;31.30;;;;;;5090273;28;20393;-68
2022/02/13 03:45:14;;;;;;;0.87;0.50;;;22.40;30.70;;;;;;5090292;28;20393;-68
2022/02/13 03:47:40;;;;;;;0.80;0.50;;;22.40;30.70;;;;;;5089829;28;20418;-69
2022/02/13 03:50:07;;;;;;;0.77;0.50;;;22.40;30.60;;;;;;5091412;28;20390;-68
2022/02/13 03:52:33;;;;;;;1.30;0.63;;;22.40;30.70;;;;;;5091433;28;20386;-69
2022/02/13 03:55:00;;;;;;;0.90;0.50;;;22.40;30.60;;;;;;5091583;28;20469;-68
2022/02/13 03:57:28;;;;;;;1.60;0.60;;;22.40;30.70;;;;;;5091173;28;20421;-68
2022/02/13 03:59:55;;;;;;;1.45;0.60;;;22.40;30.70;;;;;;5091304;28;20422;-69
2022/02/13 04:02:21;;;;;;;0.80;0.50;;;22.40;30.80;;;;;;5091481;28;20386;-68
2022/02/13 04:04:46;;;;;;;1.60;0.60;;;22.40;30.80;;;;;;5089805;28;20469;-68
2022/02/13 04:07:12;;;;;;;1.10;0.60;;;22.40;30.90;;;;;;5091103;28;20393;-68
2022/02/13 04:09:38;;;;;;;1.65;0.55;;;22.40;30.80;;;;;;5090917;28;20398;-69
2022/02/13 04:12:04;;;;;;;1.00;0.60;;;22.40;30.60;;;;;;5090159;28;20374;-68
2022/02/13 04:14:30;;;;;;;1.88;0.70;;;22.40;30.70;;;;;;5091082;28;20386;-68
2022/02/13 04:16:56;;;;;;;1.05;0.57;;;22.30;30.60;;;;;;5091390;28;20374;-69
2022/02/13 04:19:21;;;;;;;1.67;0.60;;;22.30;30.60;;;;;;5090968;28;20403;-68
2022/02/13 04:21:47;;;;;;;0.63;0.40;;;22.20;30.60;;;;;;5090995;28;20397;-69
2022/02/13 04:24:13;;;;;;;0.83;0.50;;;22.20;30.50;;;;;;5090943;28;20420;-70
2022/02/13 04:26:40;;;;;;;1.17;0.60;;;22.20;30.70;;;;;;5091306;28;20421;-68
2022/02/13 04:29:06;;;;;;;0.70;0.43;;;22.20;30.40;;;;;;5091097;28;20461;-68
2022/02/13 04:31:32;;;;;;;0.80;0.50;;;22.20;30.50;;;;;;5089375;28;20948;-68
2022/02/13 04:33:58;;;;;;;0.93;0.50;;;22.20;30.60;;;;;;5090757;28;20477;-68
2022/02/13 04:36:24;;;;;;;1.73;0.60;;;22.20;30.40;;;;;;5091220;28;20455;-69
2022/02/13 04:38:49;;;;;;;0.90;0.50;;;22.20;30.30;;;;;;5089302;28;20794;-69
2022/02/13 04:41:15;;;;;;;1.60;0.60;;;22.20;30.20;;;;;;5089916;28;20398;-69
2022/02/13 04:43:40;;;;;;;0.80;0.50;;;22.20;30.60;;;;;;5090402;28;20414;-68
2022/02/13 04:46:06;;;;;;;1.20;0.60;;;22.10;30.50;;;;;;5091327;28;20386;-68
2022/02/13 04:48:32;;;;;;;1.05;0.50;;;22.10;30.30;;;;;;5093579;28;20404;-68
2022/02/13 04:50:57;;;;;;;1.07;0.50;;;22.10;30.30;;;;;;5093427;28;20385;-69
2022/02/13 04:53:23;;;;;;;0.77;0.50;;;22.10;30.30;;;;;;5093212;28;20394;-69
2022/02/13 04:55:50;;;;;;;0.70;0.40;;;22.10;30.40;;;;;;5094308;28;20377;-70
2022/02/13 04:58:19;;;;;;;1.30;0.50;;;22.10;30.30;;;;;;5093361;28;20394;-68
2022/02/13 05:00:45;;;;;;;1.10;0.45;;;22.10;30.20;;;;;;5094358;28;20535;-68
2022/02/13 05:03:11;;;;;;;0.80;0.50;;;22.10;30.20;;;;;;5094413;28;20403;-69
2022/02/13 05:05:37;;;;;;;0.88;0.50;;;22.10;30.10;;;;;;5092677;28;20759;-67
2022/02/13 05:08:03;;;;;;;1.70;0.53;;;22.10;30.00;;;;;;5094127;28;20381;-68
2022/02/13 05:10:28;;;;;;;0.93;0.40;;;22.00;30.20;;;;;;5094256;28;20390;-68
2022/02/13 05:12:54;;;;;;;0.60;0.30;;;22.00;30.00;;;;;;5092987;28;20402;-67
2022/02/13 05:15:21;;;;;;;0.55;0.40;;;22.00;30.30;;;;;;5092726;28;20390;-68
2022/02/13 05:17:47;;;;;;;0.90;0.40;;;22.00;30.10;;;;;;5093864;28;20398;-67
2022/02/13 05:20:13;;;;;;;0.82;0.40;;;22.00;30.10;;;;;;5092365;28;20426;-68
2022/02/13 05:22:39;;;;;;;0.70;0.32;;;21.90;30.20;;;;;;5093940;28;20380;-67
2022/02/13 05:25:06;;;;;;;0.98;0.40;;;21.90;30.20;;;;;;5092747;28;20881;-68
2022/02/13 05:27:32;;;;;;;0.90;0.60;;;22.00;30.00;;;;;;5093693;28;20908;-67
2022/02/13 05:29:57;;;;;;;1.00;0.50;;;22.00;30.10;;;;;;5093828;28;20478;-69
2022/02/13 05:32:23;;;;;;;1.38;0.50;;;22.00;29.70;;;;;;5093771;28;20381;-69
2022/02/13 05:34:49;;;;;;;0.90;0.40;;;22.00;30.00;;;;;;5092535;28;20391;-71
2022/02/13 05:37:15;;;;;;;1.77;0.40;;;22.00;29.90;;;;;;5093747;28;20529;-70
2022/02/13 05:39:41;;;;;;;0.83;0.47;;;22.00;30.00;;;;;;5093057;28;21062;-68
2022/02/13 05:42:06;;;;;;;1.05;0.43;;;22.00;30.10;;;;;;5093709;28;20397;-68
2022/02/13 05:44:32;;;;;;;0.70;0.40;;;22.00;29.70;;;;;;5093649;28;20382;-70
2022/02/13 05:46:58;;;;;;;1.00;0.40;;;22.00;30.20;;;;;;5092865;28;20398;-69
2022/02/13 05:49:24;;;;;;;1.83;0.40;;;22.00;30.10;;;;;;5092344;28;21062;-68
2022/02/13 05:51:49;;;;;;;0.97;0.40;;;22.00;30.90;;;;;;5091775;28;20889;-68
2022/02/13 05:54:15;;;;;;;1.85;0.50;;;22.00;30.90;;;;;;5092230;28;20386;-68
2022/02/13 05:56:44;;;;;;;1.50;0.50;;;22.00;31.30;;;;;;5092168;28;20392;-69
2022/02/13 05:59:10;;;;;;;2.90;0.60;;;22.00;31.20;;;;;;5092043;28;20475;-69
2022/02/13 06:01:35;;;;;;;1.10;0.40;;;22.00;31.10;;;;;;5092527;28;20414;-70
2022/02/13 06:04:01;;;;;;;2.40;0.50;;;22.00;31.00;;;;;;5094292;28;20443;-69
2022/02/13 06:06:27;;;;;;;1.80;0.50;;;22.10;31.10;;;;;;5095563;28;20409;-68
2022/02/13 06:08:52;;;;;;;3.45;0.60;;;22.10;31.20;;;;;;5092947;28;20805;-68
2022/02/13 06:11:18;;;;;;;1.77;0.50;;;22.10;31.50;;;;;;5093118;28;20389;-68
2022/02/13 06:13:43;;;;;;;1.40;0.50;;;22.10;31.70;;;;;;5092551;28;20396;-68
2022/02/13 06:16:09;;;;;;;2.33;0.50;;;22.10;32.10;;;;;;5092825;28;20466;-68
2022/02/13 06:18:35;;;;;;;2.53;0.80;;;22.10;32.10;;;;;;5093313;28;20405;-68
2022/02/13 06:21:02;;;;;;;3.80;0.60;;;22.20;32.30;;;;;;5091815;28;20504;-68
2022/02/13 06:23:27;;;;;;;8.48;0.70;;;22.10;32.40;;;;;;5093251;28;20930;-68
2022/02/13 06:25:54;;;;;;;4.60;0.80;;;22.10;34.00;;;;;;5090980;28;20401;-68
2022/02/13 06:28:20;;;;;;;4.65;0.80;;;22.10;33.20;;;;;;5093265;28;20382;-70
2022/02/13 06:30:45;;;;;;;5.43;0.80;;;22.20;34.10;;;;;;5091311;28;20391;-68
2022/02/13 06:33:14;;;;;;;3.97;0.80;;;22.30;33.70;;;;;;5091648;28;20873;-68
2022/02/13 06:35:40;;;;;;;5.13;0.70;;;22.30;33.00;;;;;;5090758;28;20393;-67
2022/02/13 06:38:13;;;;;;;3.22;0.80;;;22.30;33.30;;;;;;5091129;28;20397;-68
2022/02/13 06:40:39;;;;;;;3.92;0.80;;;22.40;33.50;;;;;;5091152;28;20410;-69
2022/02/13 06:43:04;;;;;;;3.55;0.70;;;22.30;33.30;;;;;;5092489;28;20453;-68
2022/02/13 06:45:30;;;;;;;2.42;0.60;;;22.40;33.00;;;;;;5092343;28;20523;-67
2022/02/13 06:47:56;;;;;;;2.17;0.60;;;22.40;32.50;;;;;;5092227;28;20384;-68
2022/02/13 06:50:22;;;;;;;2.90;0.70;;;22.40;33.30;;;;;;5091136;28;20403;-77
2022/02/13 06:52:48;;;;;;;2.10;0.60;;;22.40;32.40;;;;;;5092333;28;20409;-71
2022/02/13 06:55:14;;;;;;;2.83;0.70;;;22.40;32.10;;;;;;5092611;28;20390;-71
2022/02/13 06:57:47;;;;;;;3.47;0.80;;;22.40;32.30;;;;;;5091719;28;20382;-74
2022/02/13 07:00:15;;;;;;;4.00;0.60;;;22.40;32.80;;;;;;5092386;28;20414;-76
2022/02/13 07:02:40;;;;;;;4.00;0.67;;;22.40;33.00;;;;;;5092479;28;20440;-76
2022/02/13 07:05:07;;;;;;;3.25;0.90;;;22.50;33.00;;;;;;5092534;28;20459;-69
2022/02/13 07:07:33;;;;;;;2.80;0.70;;;22.50;32.70;;;;;;5092442;28;20388;-69
2022/02/13 07:09:59;;;;;;;3.47;0.70;;;22.50;31.90;;;;;;5090931;28;20395;-78
2022/02/13 07:12:24;;;;;;;2.53;0.90;;;22.50;32.60;;;;;;5091110;28;20378;-68
2022/02/13 07:14:50;;;;;;;3.87;0.90;;;22.50;33.20;;;;;;5091147;28;20410;-73
2022/02/13 07:17:15;;;;;;;3.30;0.73;;;22.50;33.40;;;;;;5089507;28;20393;-69
2022/02/13 07:19:41;;;;;;;2.95;0.60;;;22.50;33.20;;;;;;5090592;28;20444;-74
2022/02/13 07:22:07;;;;;;;2.97;0.70;;;22.50;33.00;;;;;;5090101;28;20392;-67
2022/02/13 07:24:37;;;;;;;2.75;0.60;;;22.50;33.10;;;;;;5091871;28;20480;-73
2022/02/13 07:27:04;;;;;;;2.50;0.65;;;22.60;32.80;;;;;;5090587;28;20397;-76
2022/02/13 07:29:30;;;;;;;2.30;0.68;;;22.60;32.80;;;;;;5094151;28;20382;-71
2022/02/13 07:31:56;;;;;;;2.73;0.80;;;22.50;32.20;;;;;;5091607;28;20378;-74
2022/02/13 07:34:21;;;;;;;2.40;0.80;;;22.50;32.50;;;;;;5092225;28;20912;-74
2022/02/13 07:36:52;;;;;;;3.37;0.83;;;22.50;32.40;;;;;;5093200;28;20422;-71
2022/02/13 07:39:19;;;;;;;3.65;0.80;;;22.50;32.30;;;;;;5091494;28;20416;-76
2022/02/13 07:41:45;;;;;;;2.40;0.90;;;22.50;31.60;;;;;;5091555;28;20378;-70
2022/02/13 07:44:11;;;;;;;3.90;1.00;;;22.60;32.40;;;;;;5092822;28;20447;-77
2022/02/13 07:46:37;;;;;;;3.97;1.00;;;22.70;32.20;;;;;;5093200;28;20401;-71
2022/02/13 07:49:05;;;;;;;5.28;1.13;;;22.80;32.20;;;;;;5093573;28;20484;-76
2022/02/13 07:51:32;;;;;;;3.72;1.05;;;22.80;32.00;;;;;;5091719;28;20421;-73
2022/02/13 07:53:59;;;;;;;7.75;1.00;;;22.90;32.90;;;;;;5092798;28;20382;-77
2022/02/13 07:56:25;;;;;;;3.92;0.70;;;22.90;33.30;;;;;;5092085;28;20398;-70
2022/02/13 07:58:52;;;;;;;7.90;1.20;;;23.00;33.10;;;;;;5093046;28;20401;-79
2022/02/13 08:01:19;;;;;;;5.53;0.90;;;23.00;33.20;;;;;;5092221;28;20390;-71
2022/02/13 08:03:45;;;;;;;3.83;0.90;;;23.10;33.70;;;;;;5090461;28;20385;-69
2022/02/13 08:06:12;;;;;;;6.00;0.80;;;23.10;33.40;;;;;;5090833;28;20761;-68
2022/02/13 08:08:38;;;;;;;2.70;0.80;;;23.20;33.90;;;;;;5091904;28;20378;-75
2022/02/13 08:11:05;;;;;;;2.67;0.70;;;23.20;34.00;;;;;;5091748;28;20865;-68
2022/02/13 08:13:31;;;;;;;5.18;0.90;;;23.20;33.50;;;;;;5090772;28;20469;-68
2022/02/13 08:15:57;;;;;;;5.93;0.80;;;23.20;33.90;;;;;;5090738;28;20457;-69
2022/02/13 08:18:23;;;;;;;4.35;0.70;;;23.30;34.00;;;;;;5091069;28;20432;-69
2022/02/13 08:20:49;;;;;;;5.32;0.68;;;23.30;33.50;;;;;;5090535;28;20418;-69
2022/02/13 08:23:15;;;;;;;3.63;0.60;;;23.30;32.90;;;;;;5095190;28;20411;-69
2022/02/13 08:25:42;;;;;;;7.93;1.08;;;23.40;33.60;;;;;;5093223;28;20904;-75
2022/02/13 08:28:07;;;;;;;7.75;0.90;;;23.30;33.80;;;;;;5095279;28;20382;-68
2022/02/13 08:30:33;;;;;;;4.00;0.73;;;23.30;31.90;;;;;;5093626;28;20387;-69
2022/02/13 08:33:00;;;;;;;5.25;0.70;;;23.40;35.40;;;;;;5094224;28;20801;-70
2022/02/13 08:35:25;;;;;;;6.22;1.13;;;23.40;35.10;;;;;;5094837;28;20390;-75
2022/02/13 08:37:52;;;;;;;5.18;0.80;;;23.50;35.10;;;;;;5093621;28;20389;-69
2022/02/13 08:40:17;;;;;;;5.32;0.98;;;23.50;35.10;;;;;;5093580;28;20481;-69
2022/02/13 08:42:43;;;;;;;5.10;0.90;;;23.60;34.40;;;;;;5095618;28;20474;-70
2022/02/13 08:45:09;;;;;;;4.60;0.93;;;23.50;34.00;;;;;;5094135;28;20420;-77
2022/02/13 08:47:35;;;;;;;7.85;1.30;;;23.50;34.50;;;;;;5093155;28;20836;-77
2022/02/13 08:50:01;;;;;;;6.07;0.93;;;23.50;34.30;;;;;;5093158;28;20433;-70
2022/02/13 08:52:27;;;;;;;5.68;0.80;;;23.60;34.50;;;;;;5094751;28;20872;-70
2022/02/13 08:54:52;;;;;;;6.80;1.00;;;23.60;34.20;;;;;;5093383;28;20398;-75
2022/02/13 08:57:19;;;;;;;2.90;0.70;;;23.60;34.20;;;;;;5094893;28;20386;-74
2022/02/13 08:59:44;;;;;;;2.33;0.70;;;23.60;33.90;;;;;;5095643;28;20421;-76
2022/02/13 09:02:10;;;;;;;6.13;0.77;;;23.60;33.70;;;;;;5093739;28;20386;-77
2022/02/13 09:04:36;;;;;;;4.13;0.60;;;23.70;33.10;;;;;;5093976;28;20393;-77
2022/02/13 09:07:02;;;;;;;2.58;0.82;;;23.70;33.10;;;;;;5094293;28;20393;-74
2022/02/13 09:09:29;;;;;;;5.18;0.70;;;23.70;32.90;;;;;;5093658;28;20398;-76
2022/02/13 09:11:55;;;;;;;2.78;0.60;;;23.70;33.10;;;;;;5092273;28;20473;-76
2022/02/13 09:14:21;;;;;;;4.17;0.60;;;23.70;33.40;;;;;;5092807;28;21325;-76
2022/02/13 09:16:47;;;;;;;4.00;0.70;;;23.70;34.10;;;;;;5093531;28;20386;-76
2022/02/13 09:19:13;;;;;;;2.47;0.60;;;23.70;34.00;;;;;;5093772;28;20406;-73
2022/02/13 09:21:40;;;;;;;1.20;0.50;;;23.70;33.60;;;;;;5092798;28;20395;-71
2022/02/13 09:24:06;;;;;;;1.43;0.60;;;23.70;33.20;;;;;;5094734;28;20889;-79
2022/02/13 09:26:32;;;;;;;1.70;0.57;;;23.80;33.00;;;;;;5093810;28;20398;-73
2022/02/13 09:29:00;;;;;;;1.13;0.60;;;23.80;32.80;;;;;;5095013;28;20389;-70
2022/02/13 09:31:27;;;;;;;1.30;0.50;;;23.80;32.60;;;;;;5104574;28;20403;-77
2022/02/13 09:33:52;;;;;;;2.47;0.60;;;23.80;32.00;;;;;;5113436;28;20388;-69
2022/02/13 09:36:19;;;;;;;3.53;0.68;;;23.80;31.90;;;;;;5114628;28;20381;-68
2022/02/13 09:38:46;;;;;;;1.48;0.60;;;23.80;31.50;;;;;;5112746;28;20493;-75
2022/02/13 09:41:17;;;;;;;1.60;0.80;;;23.80;31.40;;;;;;5115190;28;20446;-76
2022/02/13 09:43:43;;;;;;;2.08;0.55;;;23.70;30.90;;;;;;5112703;28;20443;-74
2022/02/13 09:46:16;;;;;;;1.88;0.80;;;23.80;30.20;;;;;;5113288;28;20392;-76
2022/02/13 09:48:43;;;;;;;2.80;0.50;;;23.80;31.20;;;;;;5115162;28;20946;-71
2022/02/13 09:51:10;;;;;;;2.05;0.77;;;23.80;31.10;;;;;;5113227;28;20435;-74
2022/02/13 09:53:36;;;;;;;3.60;0.52;;;23.80;30.80;;;;;;5114364;28;20381;-79
2022/02/13 09:56:06;;;;;;;2.60;0.60;;;23.80;30.40;;;;;;5112708;28;20385;-74
2022/02/13 09:58:35;;;;;;;2.17;0.70;;;23.90;30.30;;;;;;5107710;28;20394;-73
2022/02/13 10:01:07;;;;;;;1.98;0.57;;;23.90;30.30;;;;;;5091227;28;20890;-79
2022/02/13 10:03:45;;;;;;;2.72;0.70;;;23.90;30.80;;;;;;5092469;28;20409;-78
2022/02/13 10:06:15;;;;;;;4.22;0.77;;;23.90;30.40;;;;;;5092037;28;20401;-78
2022/02/13 10:08:42;;;;;;;1.55;0.52;;;23.80;30.60;;;;;;5092053;28;20851;-68
2022/02/13 10:11:13;;;;;;;6.13;0.85;;;24.10;30.20;;;;;;5092145;28;20401;-71
2022/02/13 10:13:48;;;;;;;4.20;0.70;;;24.50;29.90;;;;;;5089941;28;20461;-77
2022/02/13 10:16:23;;;;;;;5.50;0.70;;;24.50;29.70;;;;;;5090564;28;20439;-70
2022/02/13 10:18:55;;;;;;;6.88;0.80;;;24.30;29.60;;;;;;5093150;28;20423;-77
2022/02/13 10:21:46;;;;;;;6.50;1.20;;;24.20;28.60;;;;;;5088691;28;20860;-70
2022/02/13 10:24:26;;;;;;;4.93;0.80;;;24.10;29.20;;;;;;5091054;28;20417;-72
2022/02/13 10:27:13;;;;;;;6.90;0.93;;;24.00;29.70;;;;;;5089970;28;20965;-72
2022/02/13 10:29:48;;;;;;;6.18;1.20;;;24.00;29.90;;;;;;5088871;28;20401;-72
2022/02/13 10:32:19;;;;;;;8.85;1.35;;;24.00;29.00;;;;;;5090045;28;20382;-73
2022/02/13 10:35:03;;;;;;;5.13;0.82;;;24.00;29.60;;;;;;5090933;28;20386;-72
2022/02/13 10:37:46;;;;;;;7.30;1.30;;;24.00;30.00;;;;;;5090253;28;20614;-73
2022/02/13 10:40:18;;;;;;;6.75;1.10;;;24.00;30.00;;;;;;5089199;28;20425;-72
2022/02/13 10:42:45;;;;;;;7.30;1.15;;;24.10;30.00;;;;;;5089613;28;20438;-73
2022/02/13 10:45:27;;;;;;;4.97;0.90;;;24.10;30.40;;;;;;5088438;28;20378;-72
2022/02/13 10:47:57;;;;;;;7.63;0.95;;;24.10;30.20;;;;;;5087921;28;20389;-73
2022/02/13 10:50:23;;;;;;;7.00;1.02;;;24.10;29.90;;;;;;5086426;28;20393;-70
2022/02/13 10:52:56;;;;;;;7.20;1.00;;;24.10;29.70;;;;;;5090585;28;20416;-72
2022/02/13 10:55:22;;;;;;;4.23;0.80;;;24.10;29.90;;;;;;5088349;28;20945;-72
2022/02/13 10:57:48;;;;;;;5.65;1.00;;;24.10;29.60;;;;;;5087888;28;20440;-72
2022/02/13 11:00:17;;;;;;;4.80;1.00;;;24.10;29.70;;;;;;5089836;28;20576;-73
2022/02/13 11:02:46;;;;;;;4.32;0.88;;;24.20;29.90;;;;;;5090543;28;20390;-72
2022/02/13 11:05:13;;;;;;;4.47;0.80;;;24.20;30.20;;;;;;5090036;28;20900;-73
2022/02/13 11:07:43;;;;;;;3.67;0.90;;;24.30;30.20;;;;;;5089051;28;20396;-73
2022/02/13 11:10:18;;;;;;;4.80;1.00;;;24.30;30.10;;;;;;5087041;28;20477;-73
2022/02/13 11:12:49;;;;;;;4.00;0.80;;;24.30;30.80;;;;;;5083763;28;20732;-73
2022/02/13 11:15:22;;;;;;;3.40;0.80;;;24.30;30.40;;;;;;5090663;28;20383;-72
2022/02/13 11:17:51;;;;;;;3.75;1.20;;;24.60;29.90;;;;;;5089042;28;20885;-73
2022/02/13 11:20:19;;;;;;;4.38;1.00;;;24.50;31.40;;;;;;5089445;28;20463;-74
2022/02/13 11:22:49;;;;;;;11.60;1.37;;;24.40;29.90;;;;;;5089350;28;20406;-71
2022/02/13 11:25:16;;;;;;;5.85;0.80;;;25.10;31.60;;;;;;5090512;28;20520;-70
2022/02/13 11:27:58;;;;;;;4.32;0.82;;;25.00;29.50;;;;;;5090241;28;20917;-69
2022/02/13 11:30:44;;;;;;;3.40;0.80;;;24.70;29.60;;;;;;5087148;28;20409;-69
2022/02/13 11:33:35;;;;;;;4.35;0.95;;;24.50;29.90;;;;;;5088230;28;20406;-70
2022/02/13 11:36:06;;;;;;;3.05;0.80;;;24.40;29.90;;;;;;5088996;28;20397;-70
2022/02/13 11:38:47;;;;;;;4.85;1.00;;;24.40;29.90;;;;;;5088169;28;20984;-71
2022/02/13 11:41:15;;;;;;;2.70;0.85;;;24.40;30.00;;;;;;5088874;28;20414;-72
2022/02/13 11:43:49;;;;;;;3.55;1.02;;;24.30;29.80;;;;;;5090495;28;20392;-71
2022/02/13 11:46:27;;;;;;;3.05;0.80;;;24.30;29.80;;;;;;5090753;28;20382;-70
2022/02/13 11:49:02;;;;;;;2.28;0.70;;;24.30;29.70;;;;;;5088778;28;20455;-66
2022/02/13 11:51:46;;;;;;;3.58;0.98;;;24.30;29.40;;;;;;5091455;28;20393;-69
2022/02/13 11:54:46;;;;;;;2.20;0.60;;;24.20;29.30;;;;;;5091492;28;20402;-68
2022/02/13 11:57:15;;;;;;;4.53;0.90;;;24.30;29.50;;;;;;5095776;28;20393;-68
2022/02/13 11:59:57;;;;;;;4.22;0.85;;;24.20;29.30;;;;;;5094245;28;20762;-71
2022/02/13 12:02:41;;;;;;;2.92;0.80;;;24.30;29.20;;;;;;5095665;28;20473;-69
2022/02/13 12:05:07;;;;;;;5.07;0.90;;;24.30;29.00;;;;;;5097118;28;20386;-74
2022/02/13 12:07:57;;;;;;;2.90;0.80;;;24.30;28.70;;;;;;5096148;28;20389;-69
2022/02/13 12:10:46;;;;;;;3.83;0.90;;;24.30;29.40;;;;;;5095449;28;20405;-69
2022/02/13 12:13:14;;;;;;;4.60;0.90;;;24.40;30.00;;;;;;5093977;28;20394;-76
2022/02/13 12:15:51;;;;;;;4.03;0.90;;;24.40;29.60;;;;;;5096506;28;20965;-72
2022/02/13 12:18:17;;;;;;;2.63;0.90;;;24.40;29.50;;;;;;5095352;28;20378;-69
2022/02/13 12:20:44;;;;;;;4.28;1.38;;;24.40;29.10;;;;;;5096059;28;20414;-71
2022/02/13 12:23:12;;;;;;;9.55;1.20;;;24.40;29.40;;;;;;5095406;28;20385;-70
2022/02/13 12:25:42;;;;;;;6.25;1.40;;;24.40;29.60;;;;;;5094979;28;20436;-73
2022/02/13 12:28:10;;;;;;;4.35;1.17;;;24.40;29.50;;;;;;5094934;28;20386;-70
2022/02/13 12:30:45;;;;;;;6.53;1.20;;;24.40;29.70;;;;;;5095893;28;20866;-71
2022/02/13 12:33:12;;;;;;;4.55;1.10;;;24.50;29.80;;;;;;5078798;28;20409;-70
2022/02/13 12:35:38;;;;;;;4.68;1.25;;;24.60;29.80;;;;;;5093855;28;20390;-69
2022/02/13 12:38:04;;;;;;;5.93;1.40;;;24.60;31.00;;;;;;5091581;28;20444;-70
2022/02/13 12:40:45;;;;;;;3.03;1.27;;;24.70;32.30;;;;;;5093734;28;20440;-71
2022/02/13 12:43:16;;;;;;;5.67;1.27;;;24.70;31.00;;;;;;5090255;28;20465;-70
2022/02/13 12:45:47;;;;;;;6.22;1.48;;;24.70;31.30;;;;;;5092714;28;20394;-71
2022/02/13 12:48:28;;;;;;;6.50;1.10;;;24.80;31.00;;;;;;5092514;28;20580;-75
2022/02/13 12:50:56;;;;;;;4.80;1.45;;;24.80;30.90;;;;;;5091061;28;20779;-71